Aérodrome :
LOGIN :

S'inscrire | Disclaimer

   EN    FR    IT 

 










Légende :    VFR   VFR Marginal   IFR   IFR Intensif   IFR Très Intensif
Visi : 
Plafond : 
>= 8 km
>= 3000ft
5 à 8 km
1000 à 3000 ft
1500m à 5 km
500 à 1000 ft
800 à 1500m
200 à 500 ft
< 800m
< 200 ft
Symboles :   Orages  Brouillard  Fortes neiges  Fortes précipitations  Vent > 20 kt
SIGMETs :   Divers  Orages  Givrage  Turbulence  Onde Orograph.  Cendres Volcan.







- Altitude de l'aérodrome : 204 ft
- Code IATA : AGF
- Voir les cartes d'approche


LFBA - Agen

DERNIER METAR :
  • 161700Z AUTO 33007KT 9999 BKN040 BKN058 26/16 Q1021 NOSIG

METARs EXPIRÉS :
  • 161630Z AUTO 33005KT 270V010 9999 FEW040 SCT056 27/16 Q1021 NOSIG
  • 161600Z AUTO 32007KT 280V350 9999 FEW042 27/16 Q1021 NOSIG
  • 161530Z AUTO 32007KT 280V350 9999 SCT042 BKN058 26/16 Q1021 NOSIG
  • 161500Z AUTO 31007KT 280V350 9999 BKN039 BKN058 26/16 Q1021 NOSIG
  • 161430Z AUTO 32004KT 250V040 CAVOK 27/17 Q1021 NOSIG

TAF TAF LFBA
Valide du 16 à 15h jusqu'au 17 à 00h UTC


161400Z 1615/1624 33007KT CAVOK
TEMPO 1621/1624 VRB02KT
Pas de NOTAMs connus pour ce terrain.



MET'MAP, la Météo Aéronautique d'un coup d'oeil ! - Copyright ORBIFLY Décembre 2007 - Disclaimer

ORBIFLY MET'MAP TEAM :

Programmation & Développement : Alexandra Zaïnal
Conception & Développement : Baudouin d'Aumeries
Co-Programmation & Développement : Marc-Olivier Méhu
Soutien technique & logistique : Manuel Goepfert

Contact : metmap@orbifly.com




SOURCES & CREDITS :

   NOAA